sensor_id;sensor_type;location;lat;lon;timestamp;pressure;altitude;pressure_sealevel;temperature;humidity
61324;BME280;47203;48.428;11.974;2022-07-15T00:01:51;96962.03;;;25.78;34.24
61324;BME280;47203;48.428;11.974;2022-07-15T00:03:57;96964.72;;;25.78;33.76
61324;BME280;47203;48.428;11.974;2022-07-15T00:06:02;96970.13;;;25.78;34.24
61324;BME280;47203;48.428;11.974;2022-07-15T00:08:10;96970.50;;;25.76;34.32
61324;BME280;47203;48.428;11.974;2022-07-15T00:10:16;96972.41;;;25.76;34.15
61324;BME280;47203;48.428;11.974;2022-07-15T00:12:25;96974.66;;;25.74;34.24
61324;BME280;47203;48.428;11.974;2022-07-15T00:14:31;96979.66;;;25.72;34.05
61324;BME280;47203;48.428;11.974;2022-07-15T00:16:36;96974.25;;;25.72;33.98
61324;BME280;47203;48.428;11.974;2022-07-15T00:18:41;96986.94;;;25.71;34.19
61324;BME280;47203;48.428;11.974;2022-07-15T00:20:47;96986.94;;;25.71;34.15
61324;BME280;47203;48.428;11.974;2022-07-15T00:22:52;96990.72;;;25.67;34.31
61324;BME280;47203;48.428;11.974;2022-07-15T00:25:02;96993.63;;;25.58;34.18
61324;BME280;47203;48.428;11.974;2022-07-15T00:27:07;96990.16;;;25.57;34.20
61324;BME280;47203;48.428;11.974;2022-07-15T00:29:13;96990.88;;;25.54;34.63
61324;BME280;47203;48.428;11.974;2022-07-15T00:31:19;96981.94;;;25.50;34.10
61324;BME280;47203;48.428;11.974;2022-07-15T00:33:24;96987.69;;;25.49;34.05
61324;BME280;47203;48.428;11.974;2022-07-15T00:35:31;96987.59;;;25.45;34.66
61324;BME280;47203;48.428;11.974;2022-07-15T00:37:37;96989.09;;;25.42;34.73
61324;BME280;47203;48.428;11.974;2022-07-15T00:39:42;96988.66;;;25.40;34.92
61324;BME280;47203;48.428;11.974;2022-07-15T00:41:50;96990.09;;;25.34;34.94
61324;BME280;47203;48.428;11.974;2022-07-15T00:43:55;96988.16;;;25.35;34.79
61324;BME280;47203;48.428;11.974;2022-07-15T00:46:01;96987.00;;;25.32;35.03
61324;BME280;47203;48.428;11.974;2022-07-15T00:48:06;96998.88;;;25.31;35.21
61324;BME280;47203;48.428;11.974;2022-07-15T00:50:20;97003.38;;;25.27;35.24
61324;BME280;47203;48.428;11.974;2022-07-15T00:52:26;97000.28;;;25.25;35.51
61324;BME280;47203;48.428;11.974;2022-07-15T00:54:33;96999.06;;;25.22;35.17
61324;BME280;47203;48.428;11.974;2022-07-15T00:56:46;96990.84;;;25.15;35.29
61324;BME280;47203;48.428;11.974;2022-07-15T00:58:57;96995.34;;;25.11;35.54
61324;BME280;47203;48.428;11.974;2022-07-15T01:01:04;96993.78;;;25.10;35.78
61324;BME280;47203;48.428;11.974;2022-07-15T01:03:11;96993.72;;;25.06;35.66
61324;BME280;47203;48.428;11.974;2022-07-15T01:05:18;96988.97;;;25.00;35.80
61324;BME280;47203;48.428;11.974;2022-07-15T01:07:25;96986.97;;;24.97;35.62
61324;BME280;47203;48.428;11.974;2022-07-15T01:09:30;97002.25;;;24.92;35.84
61324;BME280;47203;48.428;11.974;2022-07-15T01:11:37;97005.66;;;24.89;36.02
61324;BME280;47203;48.428;11.974;2022-07-15T01:13:42;96999.00;;;24.83;36.19
61324;BME280;47203;48.428;11.974;2022-07-15T01:15:50;97000.00;;;24.75;36.45
61324;BME280;47203;48.428;11.974;2022-07-15T01:17:59;96991.41;;;24.69;36.43
61324;BME280;47203;48.428;11.974;2022-07-15T01:20:10;96992.00;;;24.63;36.38
61324;BME280;47203;48.428;11.974;2022-07-15T01:22:30;97011.75;;;24.54;36.32
61324;BME280;47203;48.428;11.974;2022-07-15T01:24:35;97019.34;;;24.49;36.39
61324;BME280;47203;48.428;11.974;2022-07-15T01:26:53;97024.56;;;24.42;36.66
61324;BME280;47203;48.428;11.974;2022-07-15T01:28:59;97030.16;;;24.36;36.80
61324;BME280;47203;48.428;11.974;2022-07-15T01:31:05;97033.91;;;24.32;36.88
61324;BME280;47203;48.428;11.974;2022-07-15T01:33:11;97023.38;;;24.27;36.65
61324;BME280;47203;48.428;11.974;2022-07-15T01:35:17;97024.00;;;24.20;36.66
61324;BME280;47203;48.428;11.974;2022-07-15T01:37:24;97025.72;;;24.12;36.59
61324;BME280;47203;48.428;11.974;2022-07-15T01:39:34;97030.06;;;24.01;36.70
61324;BME280;47203;48.428;11.974;2022-07-15T01:41:41;97037.59;;;23.95;36.81
61324;BME280;47203;48.428;11.974;2022-07-15T01:43:50;97033.59;;;23.89;37.23
61324;BME280;47203;48.428;11.974;2022-07-15T01:45:56;97033.81;;;23.84;37.13
61324;BME280;47203;48.428;11.974;2022-07-15T01:48:13;97037.88;;;23.78;37.15
61324;BME280;47203;48.428;11.974;2022-07-15T01:50:46;97031.53;;;23.70;37.24
61324;BME280;47203;48.428;11.974;2022-07-15T01:52:54;97030.28;;;23.67;37.17
61324;BME280;47203;48.428;11.974;2022-07-15T01:55:07;97018.25;;;23.61;37.28
61324;BME280;47203;48.428;11.974;2022-07-15T01:57:14;97027.41;;;23.60;37.31
61324;BME280;47203;48.428;11.974;2022-07-15T01:59:26;97026.19;;;23.58;37.39
61324;BME280;47203;48.428;11.974;2022-07-15T02:01:33;97021.16;;;23.56;37.49
61324;BME280;47203;48.428;11.974;2022-07-15T02:03:44;97032.59;;;23.53;37.47
61324;BME280;47203;48.428;11.974;2022-07-15T02:05:49;97033.69;;;23.52;37.47
61324;BME280;47203;48.428;11.974;2022-07-15T02:07:56;97035.16;;;23.49;37.49
61324;BME280;47203;48.428;11.974;2022-07-15T02:10:06;97028.47;;;23.43;37.42
61324;BME280;47203;48.428;11.974;2022-07-15T02:12:17;97026.59;;;23.44;37.39
61324;BME280;47203;48.428;11.974;2022-07-15T02:14:27;97028.81;;;23.42;37.42
61324;BME280;47203;48.428;11.974;2022-07-15T02:16:37;97032.19;;;23.39;37.42
61324;BME280;47203;48.428;11.974;2022-07-15T02:18:47;97038.22;;;23.35;37.61
61324;BME280;47203;48.428;11.974;2022-07-15T02:20:53;97033.19;;;23.34;37.93
61324;BME280;47203;48.428;11.974;2022-07-15T02:22:58;97031.97;;;23.31;37.80
61324;BME280;47203;48.428;11.974;2022-07-15T02:25:08;97027.28;;;23.28;37.61
61324;BME280;47203;48.428;11.974;2022-07-15T02:27:14;97025.38;;;23.29;37.50
61324;BME280;47203;48.428;11.974;2022-07-15T02:29:20;97028.75;;;23.26;37.64
61324;BME280;47203;48.428;11.974;2022-07-15T02:31:25;97021.81;;;23.25;37.95
61324;BME280;47203;48.428;11.974;2022-07-15T02:33:31;97014.53;;;23.25;37.74
61324;BME280;47203;48.428;11.974;2022-07-15T02:35:42;97020.25;;;23.24;37.77
61324;BME280;47203;48.428;11.974;2022-07-15T02:37:47;97021.38;;;23.23;37.72
61324;BME280;47203;48.428;11.974;2022-07-15T02:39:53;97020.94;;;23.21;38.21
61324;BME280;47203;48.428;11.974;2022-07-15T02:42:02;97025.06;;;23.18;37.81
61324;BME280;47203;48.428;11.974;2022-07-15T02:44:11;97031.56;;;23.17;37.88
61324;BME280;47203;48.428;11.974;2022-07-15T02:46:21;97036.16;;;23.16;37.82
61324;BME280;47203;48.428;11.974;2022-07-15T02:48:28;97026.53;;;23.15;38.01
61324;BME280;47203;48.428;11.974;2022-07-15T02:50:36;97035.72;;;23.14;38.16
61324;BME280;47203;48.428;11.974;2022-07-15T02:52:43;97030.53;;;23.09;38.44
61324;BME280;47203;48.428;11.974;2022-07-15T02:54:48;97031.56;;;23.05;38.45
61324;BME280;47203;48.428;11.974;2022-07-15T02:56:55;97031.00;;;22.99;38.60
61324;BME280;47203;48.428;11.974;2022-07-15T02:59:04;97038.50;;;22.93;38.52
61324;BME280;47203;48.428;11.974;2022-07-15T03:01:10;97038.84;;;22.92;38.48
61324;BME280;47203;48.428;11.974;2022-07-15T03:03:16;97039.50;;;22.89;38.79
61324;BME280;47203;48.428;11.974;2022-07-15T03:05:22;97037.50;;;22.86;38.60
61324;BME280;47203;48.428;11.974;2022-07-15T03:07:27;97037.03;;;22.83;38.86
61324;BME280;47203;48.428;11.974;2022-07-15T03:09:33;97045.00;;;22.80;38.73
61324;BME280;47203;48.428;11.974;2022-07-15T03:11:38;97038.41;;;22.77;38.74
61324;BME280;47203;48.428;11.974;2022-07-15T03:13:43;97040.63;;;22.75;38.86
61324;BME280;47203;48.428;11.974;2022-07-15T03:15:51;97049.69;;;22.71;39.10
61324;BME280;47203;48.428;11.974;2022-07-15T03:17:58;97043.88;;;22.69;38.83
61324;BME280;47203;48.428;11.974;2022-07-15T03:20:05;97042.97;;;22.64;38.95
61324;BME280;47203;48.428;11.974;2022-07-15T03:22:14;97052.50;;;22.62;38.97
61324;BME280;47203;48.428;11.974;2022-07-15T03:24:19;97055.03;;;22.58;39.24
61324;BME280;47203;48.428;11.974;2022-07-15T03:26:24;97053.81;;;22.56;39.27
61324;BME280;47203;48.428;11.974;2022-07-15T03:28:30;97057.16;;;22.53;39.39
61324;BME280;47203;48.428;11.974;2022-07-15T03:30:35;97057.06;;;22.49;39.33
61324;BME280;47203;48.428;11.974;2022-07-15T03:32:44;97051.13;;;22.43;39.39
61324;BME280;47203;48.428;11.974;2022-07-15T03:34:50;97050.66;;;22.41;39.33
61324;BME280;47203;48.428;11.974;2022-07-15T03:36:59;97052.13;;;22.39;39.63
61324;BME280;47203;48.428;11.974;2022-07-15T03:39:05;97052.66;;;22.32;39.56
61324;BME280;47203;48.428;11.974;2022-07-15T03:41:11;97057.56;;;22.30;40.04
61324;BME280;47203;48.428;11.974;2022-07-15T03:43:17;97058.22;;;22.27;39.72
61324;BME280;47203;48.428;11.974;2022-07-15T03:45:26;97060.78;;;22.23;39.79
61324;BME280;47203;48.428;11.974;2022-07-15T03:47:32;97058.75;;;22.20;39.85
61324;BME280;47203;48.428;11.974;2022-07-15T03:49:43;97057.84;;;22.16;40.12
61324;BME280;47203;48.428;11.974;2022-07-15T03:51:49;97060.53;;;22.16;40.00
61324;BME280;47203;48.428;11.974;2022-07-15T03:53:54;97064.31;;;22.15;40.52
61324;BME280;47203;48.428;11.974;2022-07-15T03:55:59;97068.47;;;22.12;40.35
61324;BME280;47203;48.428;11.974;2022-07-15T03:58:05;97060.41;;;22.12;40.50
61324;BME280;47203;48.428;11.974;2022-07-15T04:00:12;97061.84;;;22.10;40.35
61324;BME280;47203;48.428;11.974;2022-07-15T04:02:17;97071.47;;;22.11;40.54
61324;BME280;47203;48.428;11.974;2022-07-15T04:04:24;97072.25;;;22.11;40.63
61324;BME280;47203;48.428;11.974;2022-07-15T04:06:33;97068.31;;;22.09;40.35
61324;BME280;47203;48.428;11.974;2022-07-15T04:08:38;97074.94;;;22.11;40.56
61324;BME280;47203;48.428;11.974;2022-07-15T04:10:43;97082.97;;;22.11;40.46
61324;BME280;47203;48.428;11.974;2022-07-15T04:12:48;97077.59;;;22.11;40.63
61324;BME280;47203;48.428;11.974;2022-07-15T04:14:54;97081.41;;;22.10;40.79
61324;BME280;47203;48.428;11.974;2022-07-15T04:16:59;97074.16;;;22.11;40.53
61324;BME280;47203;48.428;11.974;2022-07-15T04:19:10;97076.03;;;22.10;40.50
61324;BME280;47203;48.428;11.974;2022-07-15T04:21:15;97088.34;;;22.11;40.46
61324;BME280;47203;48.428;11.974;2022-07-15T04:23:23;97071.47;;;22.11;40.73
61324;BME280;47203;48.428;11.974;2022-07-15T04:25:29;97078.53;;;22.16;40.69
61324;BME280;47203;48.428;11.974;2022-07-15T04:27:34;97070.16;;;22.17;40.38
61324;BME280;47203;48.428;11.974;2022-07-15T04:29:40;97077.53;;;22.20;40.77
61324;BME280;47203;48.428;11.974;2022-07-15T04:31:47;97073.41;;;22.23;40.53
61324;BME280;47203;48.428;11.974;2022-07-15T04:34:00;97068.03;;;22.23;40.21
61324;BME280;47203;48.428;11.974;2022-07-15T04:36:06;97074.94;;;22.24;40.50
61324;BME280;47203;48.428;11.974;2022-07-15T04:38:11;97072.75;;;22.26;40.27
61324;BME280;47203;48.428;11.974;2022-07-15T04:40:20;97068.16;;;22.26;40.40
61324;BME280;47203;48.428;11.974;2022-07-15T04:42:27;97072.84;;;22.29;40.44
61324;BME280;47203;48.428;11.974;2022-07-15T04:44:33;97077.56;;;22.33;40.49
61324;BME280;47203;48.428;11.974;2022-07-15T04:46:41;97079.94;;;22.34;40.21
61324;BME280;47203;48.428;11.974;2022-07-15T04:49:05;97073.13;;;22.37;40.39
61324;BME280;47203;48.428;11.974;2022-07-15T04:51:26;97068.22;;;22.39;40.34
61324;BME280;47203;48.428;11.974;2022-07-15T04:53:31;97077.94;;;22.43;40.58
61324;BME280;47203;48.428;11.974;2022-07-15T04:55:39;97086.00;;;22.43;40.20
61324;BME280;47203;48.428;11.974;2022-07-15T04:57:45;97084.97;;;22.48;40.16
61324;BME280;47203;48.428;11.974;2022-07-15T04:59:50;97082.75;;;22.50;40.17
61324;BME280;47203;48.428;11.974;2022-07-15T05:01:56;97092.81;;;22.53;40.19
61324;BME280;47203;48.428;11.974;2022-07-15T05:04:10;97089.00;;;22.54;40.09
61324;BME280;47203;48.428;11.974;2022-07-15T05:06:15;97088.69;;;22.56;40.17
61324;BME280;47203;48.428;11.974;2022-07-15T05:08:20;97094.19;;;22.59;40.25
61324;BME280;47203;48.428;11.974;2022-07-15T05:10:29;97093.94;;;22.64;40.33
61324;BME280;47203;48.428;11.974;2022-07-15T05:12:39;97091.25;;;22.64;40.38
61324;BME280;47203;48.428;11.974;2022-07-15T05:14:46;97092.16;;;22.69;39.96
61324;BME280;47203;48.428;11.974;2022-07-15T05:16:51;97093.41;;;22.71;39.98
61324;BME280;47203;48.428;11.974;2022-07-15T05:18:58;97101.13;;;22.73;39.55
61324;BME280;47203;48.428;11.974;2022-07-15T05:21:17;97100.09;;;22.77;39.53
61324;BME280;47203;48.428;11.974;2022-07-15T05:23:27;97101.34;;;22.80;39.35
61324;BME280;47203;48.428;11.974;2022-07-15T05:25:36;97111.84;;;22.85;39.82
61324;BME280;47203;48.428;11.974;2022-07-15T05:27:45;97108.94;;;22.90;39.47
61324;BME280;47203;48.428;11.974;2022-07-15T05:29:51;97107.25;;;22.98;39.51
61324;BME280;47203;48.428;11.974;2022-07-15T05:31:57;97119.81;;;23.06;39.64
61324;BME280;47203;48.428;11.974;2022-07-15T05:34:03;97110.91;;;23.14;39.29
61324;BME280;47203;48.428;11.974;2022-07-15T05:36:14;97110.31;;;23.21;39.50
61324;BME280;47203;48.428;11.974;2022-07-15T05:38:21;97114.44;;;23.31;39.18
61324;BME280;47203;48.428;11.974;2022-07-15T05:40:28;97115.88;;;23.41;38.93
61324;BME280;47203;48.428;11.974;2022-07-15T05:42:34;97118.78;;;23.48;38.97
61324;BME280;47203;48.428;11.974;2022-07-15T05:44:44;97125.50;;;23.54;38.79
61324;BME280;47203;48.428;11.974;2022-07-15T05:46:49;97122.69;;;23.63;38.85
61324;BME280;47203;48.428;11.974;2022-07-15T05:48:56;97128.25;;;23.70;38.62
61324;BME280;47203;48.428;11.974;2022-07-15T05:51:03;97130.00;;;23.78;38.47
61324;BME280;47203;48.428;11.974;2022-07-15T05:53:09;97121.84;;;23.87;38.35
61324;BME280;47203;48.428;11.974;2022-07-15T05:55:14;97120.59;;;23.97;38.60
61324;BME280;47203;48.428;11.974;2022-07-15T05:57:23;97126.59;;;24.06;38.05
61324;BME280;47203;48.428;11.974;2022-07-15T05:59:28;97133.72;;;24.14;38.35
61324;BME280;47203;48.428;11.974;2022-07-15T06:01:37;97136.50;;;24.18;37.66
61324;BME280;47203;48.428;11.974;2022-07-15T06:03:43;97135.50;;;24.22;37.99
61324;BME280;47203;48.428;11.974;2022-07-15T06:05:52;97133.66;;;24.27;37.38
61324;BME280;47203;48.428;11.974;2022-07-15T06:08:00;97137.69;;;24.33;37.46
61324;BME280;47203;48.428;11.974;2022-07-15T06:10:14;97137.09;;;24.39;37.13
61324;BME280;47203;48.428;11.974;2022-07-15T06:12:19;97137.19;;;24.43;36.69
61324;BME280;47203;48.428;11.974;2022-07-15T06:14:25;97132.59;;;24.44;36.67
61324;BME280;47203;48.428;11.974;2022-07-15T06:16:43;97139.19;;;24.46;36.46
61324;BME280;47203;48.428;11.974;2022-07-15T06:18:50;97138.38;;;24.46;36.22
61324;BME280;47203;48.428;11.974;2022-07-15T06:20:55;97136.50;;;24.46;35.89
61324;BME280;47203;48.428;11.974;2022-07-15T06:23:01;97135.47;;;24.51;36.12
61324;BME280;47203;48.428;11.974;2022-07-15T06:25:09;97143.59;;;24.54;35.76
61324;BME280;47203;48.428;11.974;2022-07-15T06:27:17;97140.25;;;24.57;35.90
61324;BME280;47203;48.428;11.974;2022-07-15T06:29:23;97143.81;;;24.62;35.85
61324;BME280;47203;48.428;11.974;2022-07-15T06:31:30;97134.81;;;24.70;35.82
61324;BME280;47203;48.428;11.974;2022-07-15T06:33:39;97136.56;;;24.78;35.45
61324;BME280;47203;48.428;11.974;2022-07-15T06:35:44;97140.72;;;24.91;35.20
61324;BME280;47203;48.428;11.974;2022-07-15T06:37:50;97137.50;;;25.02;35.21
61324;BME280;47203;48.428;11.974;2022-07-15T06:39:57;97137.66;;;25.09;34.71
61324;BME280;47203;48.428;11.974;2022-07-15T06:42:03;97142.44;;;25.16;34.98
61324;BME280;47203;48.428;11.974;2022-07-15T06:44:08;97140.34;;;25.25;34.75
61324;BME280;47203;48.428;11.974;2022-07-15T06:46:21;97144.88;;;25.37;34.90
61324;BME280;47203;48.428;11.974;2022-07-15T06:48:26;97145.09;;;25.48;34.71
61324;BME280;47203;48.428;11.974;2022-07-15T06:50:34;97155.69;;;25.56;34.21
61324;BME280;47203;48.428;11.974;2022-07-15T06:52:39;97153.28;;;25.71;34.15
61324;BME280;47203;48.428;11.974;2022-07-15T06:54:45;97153.09;;;25.79;33.81
61324;BME280;47203;48.428;11.974;2022-07-15T06:56:50;97150.59;;;25.90;33.84
61324;BME280;47203;48.428;11.974;2022-07-15T06:58:57;97161.84;;;25.92;33.34
61324;BME280;47203;48.428;11.974;2022-07-15T07:01:02;97161.75;;;25.89;32.63
61324;BME280;47203;48.428;11.974;2022-07-15T07:03:08;97160.56;;;25.86;32.91
61324;BME280;47203;48.428;11.974;2022-07-15T07:05:14;97162.09;;;25.87;32.63
61324;BME280;47203;48.428;11.974;2022-07-15T07:07:23;97164.88;;;25.91;32.97
61324;BME280;47203;48.428;11.974;2022-07-15T07:09:28;97172.84;;;26.03;33.06
61324;BME280;47203;48.428;11.974;2022-07-15T07:11:33;97164.19;;;26.13;32.97
61324;BME280;47203;48.428;11.974;2022-07-15T07:13:38;97170.88;;;26.20;32.49
61324;BME280;47203;48.428;11.974;2022-07-15T07:15:43;97160.88;;;26.20;32.11
61324;BME280;47203;48.428;11.974;2022-07-15T07:17:49;97165.13;;;26.21;32.29
61324;BME280;47203;48.428;11.974;2022-07-15T07:19:55;97162.56;;;26.28;32.40
61324;BME280;47203;48.428;11.974;2022-07-15T07:22:00;97156.25;;;26.40;31.89
61324;BME280;47203;48.428;11.974;2022-07-15T07:24:09;97162.22;;;26.53;32.02
61324;BME280;47203;48.428;11.974;2022-07-15T07:26:15;97165.53;;;26.66;31.49
61324;BME280;47203;48.428;11.974;2022-07-15T07:28:21;97160.75;;;26.75;31.77
61324;BME280;47203;48.428;11.974;2022-07-15T07:30:27;97165.53;;;26.86;31.12
61324;BME280;47203;48.428;11.974;2022-07-15T07:32:32;97166.03;;;26.91;30.59
61324;BME280;47203;48.428;11.974;2022-07-15T07:34:41;97165.72;;;26.96;30.68
61324;BME280;47203;48.428;11.974;2022-07-15T07:36:46;97160.06;;;27.05;30.59
61324;BME280;47203;48.428;11.974;2022-07-15T07:38:52;97162.47;;;27.10;29.83
61324;BME280;47203;48.428;11.974;2022-07-15T07:41:01;97167.50;;;27.12;30.01
61324;BME280;47203;48.428;11.974;2022-07-15T07:43:06;97159.91;;;27.21;30.02
61324;BME280;47203;48.428;11.974;2022-07-15T07:45:12;97155.38;;;27.29;29.71
61324;BME280;47203;48.428;11.974;2022-07-15T07:47:17;97160.63;;;27.41;29.61
61324;BME280;47203;48.428;11.974;2022-07-15T07:49:24;97159.56;;;27.49;29.40
61324;BME280;47203;48.428;11.974;2022-07-15T07:51:37;97156.47;;;27.47;29.16
61324;BME280;47203;48.428;11.974;2022-07-15T07:53:43;97158.44;;;27.50;29.16
61324;BME280;47203;48.428;11.974;2022-07-15T07:55:48;97155.06;;;27.57;29.49
61324;BME280;47203;48.428;11.974;2022-07-15T07:57:58;97159.03;;;27.67;29.22
61324;BME280;47203;48.428;11.974;2022-07-15T08:00:05;97153.44;;;27.83;28.88
61324;BME280;47203;48.428;11.974;2022-07-15T08:02:14;97152.44;;;27.95;28.34
61324;BME280;47203;48.428;11.974;2022-07-15T08:04:19;97151.66;;;27.94;28.34
61324;BME280;47203;48.428;11.974;2022-07-15T08:06:24;97147.03;;;27.95;27.99
61324;BME280;47203;48.428;11.974;2022-07-15T08:08:30;97139.72;;;27.95;28.33
61324;BME280;47203;48.428;11.974;2022-07-15T08:10:35;97148.72;;;28.03;27.49
61324;BME280;47203;48.428;11.974;2022-07-15T08:12:48;97150.28;;;28.04;27.84
61324;BME280;47203;48.428;11.974;2022-07-15T08:14:56;97142.03;;;27.97;27.37
61324;BME280;47203;48.428;11.974;2022-07-15T08:17:02;97139.63;;;27.88;27.08
61324;BME280;47203;48.428;11.974;2022-07-15T08:19:07;97143.00;;;27.81;27.74
61324;BME280;47203;48.428;11.974;2022-07-15T08:21:16;97150.81;;;27.86;28.24
61324;BME280;47203;48.428;11.974;2022-07-15T08:23:22;97141.69;;;27.98;27.92
61324;BME280;47203;48.428;11.974;2022-07-15T08:25:29;97138.38;;;28.12;28.19
61324;BME280;47203;48.428;11.974;2022-07-15T08:27:35;97140.50;;;28.30;27.92
61324;BME280;47203;48.428;11.974;2022-07-15T08:29:40;97148.00;;;28.47;27.56
61324;BME280;47203;48.428;11.974;2022-07-15T08:31:48;97150.84;;;28.58;27.41
61324;BME280;47203;48.428;11.974;2022-07-15T08:33:53;97142.81;;;28.65;27.10
61324;BME280;47203;48.428;11.974;2022-07-15T08:35:58;97143.97;;;28.68;27.86
61324;BME280;47203;48.428;11.974;2022-07-15T08:38:05;97139.75;;;28.70;27.00
61324;BME280;47203;48.428;11.974;2022-07-15T08:40:12;97136.66;;;28.72;27.22
61324;BME280;47203;48.428;11.974;2022-07-15T08:42:19;97132.44;;;28.75;27.72
61324;BME280;47203;48.428;11.974;2022-07-15T08:44:25;97139.06;;;28.81;27.68
61324;BME280;47203;48.428;11.974;2022-07-15T08:46:33;97136.41;;;28.88;27.02
61324;BME280;47203;48.428;11.974;2022-07-15T08:48:49;97133.75;;;28.92;26.48
61324;BME280;47203;48.428;11.974;2022-07-15T08:50:55;97130.31;;;28.98;27.77
61324;BME280;47203;48.428;11.974;2022-07-15T08:53:00;97132.28;;;29.05;27.54
61324;BME280;47203;48.428;11.974;2022-07-15T08:55:07;97133.16;;;29.16;27.89
61324;BME280;47203;48.428;11.974;2022-07-15T08:57:13;97139.81;;;29.26;27.58
61324;BME280;47203;48.428;11.974;2022-07-15T08:59:18;97140.66;;;29.37;27.89
61324;BME280;47203;48.428;11.974;2022-07-15T09:01:23;97131.06;;;29.47;27.38
61324;BME280;47203;48.428;11.974;2022-07-15T09:03:29;97124.50;;;29.55;26.59
61324;BME280;47203;48.428;11.974;2022-07-15T09:05:37;97133.03;;;29.61;26.67
61324;BME280;47203;48.428;11.974;2022-07-15T09:07:55;97130.78;;;29.70;28.49
61324;BME280;47203;48.428;11.974;2022-07-15T09:10:01;97130.09;;;29.84;26.51
61324;BME280;47203;48.428;11.974;2022-07-15T09:12:09;97131.63;;;29.85;26.99
61324;BME280;47203;48.428;11.974;2022-07-15T09:14:19;97130.50;;;29.90;27.62
61324;BME280;47203;48.428;11.974;2022-07-15T09:16:25;97135.56;;;29.99;26.94
61324;BME280;47203;48.428;11.974;2022-07-15T09:18:33;97139.06;;;30.06;26.96
61324;BME280;47203;48.428;11.974;2022-07-15T09:20:44;97135.63;;;30.13;25.90
61324;BME280;47203;48.428;11.974;2022-07-15T09:22:53;97127.09;;;30.11;25.61
61324;BME280;47203;48.428;11.974;2022-07-15T09:25:05;97130.53;;;30.08;26.09
61324;BME280;47203;48.428;11.974;2022-07-15T09:27:27;97136.78;;;30.08;25.90
61324;BME280;47203;48.428;11.974;2022-07-15T09:29:36;97137.13;;;30.00;25.42
61324;BME280;47203;48.428;11.974;2022-07-15T09:32:00;97132.44;;;29.89;25.25
61324;BME280;47203;48.428;11.974;2022-07-15T09:34:27;97131.97;;;29.80;25.22
61324;BME280;47203;48.428;11.974;2022-07-15T09:36:40;97134.25;;;29.71;24.81
61324;BME280;47203;48.428;11.974;2022-07-15T09:38:49;97130.41;;;29.72;25.96
61324;BME280;47203;48.428;11.974;2022-07-15T09:40:55;97126.50;;;29.73;25.18
61324;BME280;47203;48.428;11.974;2022-07-15T09:43:05;97123.38;;;29.64;25.31
61324;BME280;47203;48.428;11.974;2022-07-15T09:45:21;97124.47;;;29.52;24.98
61324;BME280;47203;48.428;11.974;2022-07-15T09:47:27;97131.00;;;29.43;25.12
61324;BME280;47203;48.428;11.974;2022-07-15T09:49:34;97129.06;;;29.40;25.13
61324;BME280;47203;48.428;11.974;2022-07-15T09:51:54;97121.69;;;29.37;25.12
61324;BME280;47203;48.428;11.974;2022-07-15T09:53:59;97124.44;;;29.45;25.82
61324;BME280;47203;48.428;11.974;2022-07-15T09:56:08;97126.06;;;29.56;25.75
61324;BME280;47203;48.428;11.974;2022-07-15T09:58:13;97121.09;;;29.69;25.55
61324;BME280;47203;48.428;11.974;2022-07-15T10:00:19;97121.13;;;29.80;25.25
61324;BME280;47203;48.428;11.974;2022-07-15T10:02:26;97115.78;;;29.91;25.51
61324;BME280;47203;48.428;11.974;2022-07-15T10:04:31;97113.88;;;30.09;26.58
61324;BME280;47203;48.428;11.974;2022-07-15T10:06:38;97111.59;;;30.29;25.12
61324;BME280;47203;48.428;11.974;2022-07-15T10:08:49;97122.50;;;30.40;25.43
61324;BME280;47203;48.428;11.974;2022-07-15T10:10:56;97119.06;;;30.58;25.86
61324;BME280;47203;48.428;11.974;2022-07-15T10:13:16;97108.59;;;30.74;25.64
61324;BME280;47203;48.428;11.974;2022-07-15T10:15:39;97119.06;;;30.90;25.07
61324;BME280;47203;48.428;11.974;2022-07-15T10:18:17;97119.06;;;30.90;24.90
61324;BME280;47203;48.428;11.974;2022-07-15T10:21:11;97121.38;;;30.88;24.43
61324;BME280;47203;48.428;11.974;2022-07-15T10:23:45;97115.94;;;30.81;24.17
61324;BME280;47203;48.428;11.974;2022-07-15T10:26:13;97113.63;;;30.79;24.76
61324;BME280;47203;48.428;11.974;2022-07-15T10:28:49;97123.31;;;30.88;24.94
61324;BME280;47203;48.428;11.974;2022-07-15T10:31:14;97118.31;;;31.01;24.65
61324;BME280;47203;48.428;11.974;2022-07-15T10:33:21;97116.72;;;31.14;24.58
61324;BME280;47203;48.428;11.974;2022-07-15T10:35:38;97112.84;;;31.19;24.13
61324;BME280;47203;48.428;11.974;2022-07-15T10:38:20;97115.56;;;31.22;24.21
61324;BME280;47203;48.428;11.974;2022-07-15T10:41:00;97106.19;;;31.38;24.27
61324;BME280;47203;48.428;11.974;2022-07-15T10:43:06;97103.84;;;31.58;24.80
61324;BME280;47203;48.428;11.974;2022-07-15T10:45:11;97105.72;;;31.75;24.31
61324;BME280;47203;48.428;11.974;2022-07-15T10:47:18;97105.25;;;31.91;24.33
61324;BME280;47203;48.428;11.974;2022-07-15T10:49:30;97102.88;;;32.00;23.12
61324;BME280;47203;48.428;11.974;2022-07-15T10:51:46;97104.50;;;31.87;23.56
61324;BME280;47203;48.428;11.974;2022-07-15T10:53:51;97101.00;;;31.83;23.32
61324;BME280;47203;48.428;11.974;2022-07-15T10:56:29;97101.03;;;31.79;23.92
61324;BME280;47203;48.428;11.974;2022-07-15T10:58:36;97095.91;;;31.99;23.70
61324;BME280;47203;48.428;11.974;2022-07-15T11:00:42;97094.66;;;32.15;23.68
61324;BME280;47203;48.428;11.974;2022-07-15T11:03:04;97096.53;;;32.25;23.36
61324;BME280;47203;48.428;11.974;2022-07-15T11:05:20;97094.16;;;32.34;23.21
61324;BME280;47203;48.428;11.974;2022-07-15T11:07:28;97087.47;;;32.43;23.36
61324;BME280;47203;48.428;11.974;2022-07-15T11:09:46;97095.22;;;32.48;23.58
61324;BME280;47203;48.428;11.974;2022-07-15T11:11:55;97088.97;;;32.51;22.66
61324;BME280;47203;48.428;11.974;2022-07-15T11:17:03;97078.13;;;32.40;21.47